<?xml version="1.0" encoding="UTF-8" standalone="no" ?>
<gpx xmlns="http://www.topografix.com/GPX/1/1" xmlns:xsi="http://www.w3.org/2001/XMLSchema-instance" xsi:schemaLocation="http://www.topografix.com/GPX/1/1 http://www.topografix.com/GPX/1/1/gpx.xsd" version="1.1" creator="VisuGPX - https://www.visugpx.com">
  <metadata>
    <name>_Trace-Gps-Pic-de-Cagire-Aller-Retour</name>
  </metadata>
  <wpt lat="42.91939" lon="0.76162">
    <ele>1343.23046875</ele>
    <name><![CDATA[1346m Col de Mente]]></name>
    <desc><![CDATA[Col de Menté 1349m]]></desc>
    <cmt><![CDATA[Col de Menté 1349m]]></cmt>
    <type><![CDATA[user]]></type>
  </wpt>
  <wpt lat="42.9338" lon="0.76149">
    <ele>1447.311646</ele>
    <name><![CDATA[1447m Croisement]]></name>
    <type><![CDATA[user]]></type>
  </wpt>
  <wpt lat="42.93657" lon="0.76009">
    <ele>1507.345215</ele>
    <name><![CDATA[1507m Croisement]]></name>
    <type><![CDATA[user]]></type>
  </wpt>
  <wpt lat="42.93783" lon="0.75472">
    <ele>1703.457764</ele>
    <name><![CDATA[1708m Col du pas de l'Ane]]></name>
    <type><![CDATA[user]]></type>
  </wpt>
  <wpt lat="42.94433" lon="0.76155">
    <ele>1847</ele>
    <name><![CDATA[1847m-Col-crete-Cagire]]></name>
    <type><![CDATA[user]]></type>
  </wpt>
  <wpt lat="42.94277" lon="0.75843">
    <ele>1888.905273</ele>
    <name><![CDATA[1898m Sommet de Pique Poque]]></name>
    <type><![CDATA[user]]></type>
  </wpt>
  <wpt lat="42.93436" lon="0.76102">
    <ele>1470</ele>
    <name><![CDATA[Cabane de Larreix 1470m]]></name>
    <desc><![CDATA[Cabane de Larreix 1470m]]></desc>
    <cmt><![CDATA[Cabane de Larreix 1470m]]></cmt>
    <type><![CDATA[user]]></type>
  </wpt>
  <wpt lat="42.92862" lon="0.77446">
    <ele>1290</ele>
    <name><![CDATA[Croisement-1290m]]></name>
    <desc><![CDATA[Croisement-1290m]]></desc>
    <cmt><![CDATA[Croisement-1290m]]></cmt>
    <type><![CDATA[user]]></type>
  </wpt>
  <wpt lat="42.91335" lon="0.769">
    <ele>1444</ele>
    <name><![CDATA[Estation de Mourtis 1444m]]></name>
    <desc><![CDATA[Estation de Mourtis 1444m]]></desc>
    <cmt><![CDATA[Estation de Mourtis 1444m]]></cmt>
    <type><![CDATA[user]]></type>
  </wpt>
  <wpt lat="42.94658" lon="0.76589">
    <ele>1898.170654</ele>
    <name><![CDATA[Pic de Cagire 1912m]]></name>
    <type><![CDATA[user]]></type>
  </wpt>
  <trk>
    <name><![CDATA[_Trace-Gps-Pic-de-Cagire-Aller-Retour]]></name>
    <trkseg>
      <trkpt lat="42.91945" lon="0.76153">
        <ele>1360.8835449219</ele>
        <time>2013-03-02T08:01:34Z</time>
      </trkpt>
      <trkpt lat="42.91967" lon="0.76168">
        <ele>1360.4028320312</ele>
        <time>2013-03-02T08:02:10Z</time>
      </trkpt>
      <trkpt lat="42.91988" lon="0.76178">
        <ele>1358.4802246094</ele>
        <time>2013-03-02T08:02:31Z</time>
      </trkpt>
      <trkpt lat="42.92007" lon="0.76192">
        <ele>1357.9997558594</ele>
        <time>2013-03-02T08:02:53Z</time>
      </trkpt>
      <trkpt lat="42.92024" lon="0.76212">
        <ele>1357.5190429688</ele>
        <time>2013-03-02T08:03:07Z</time>
      </trkpt>
      <trkpt lat="42.92032" lon="0.76223">
        <ele>1355.5961914062</ele>
        <time>2013-03-02T08:03:18Z</time>
      </trkpt>
      <trkpt lat="42.92046" lon="0.76233">
        <ele>1356.5576171875</ele>
        <time>2013-03-02T08:03:37Z</time>
      </trkpt>
      <trkpt lat="42.92062" lon="0.76242">
        <ele>1355.5961914062</ele>
        <time>2013-03-02T08:03:49Z</time>
      </trkpt>
      <trkpt lat="42.9207" lon="0.76254">
        <ele>1355.5961914062</ele>
        <time>2013-03-02T08:04:00Z</time>
      </trkpt>
      <trkpt lat="42.92087" lon="0.76263">
        <ele>1354.634765625</ele>
        <time>2013-03-02T08:04:15Z</time>
      </trkpt>
      <trkpt lat="42.92156" lon="0.76441">
        <ele>1347.9057617188</ele>
        <time>2013-03-02T08:06:23Z</time>
      </trkpt>
      <trkpt lat="42.92166" lon="0.76461">
        <ele>1347.9057617188</ele>
        <time>2013-03-02T08:06:37Z</time>
      </trkpt>
      <trkpt lat="42.92171" lon="0.76475">
        <ele>1347.9057617188</ele>
        <time>2013-03-02T08:06:47Z</time>
      </trkpt>
      <trkpt lat="42.92182" lon="0.76487">
        <ele>1347.4250488281</ele>
        <time>2013-03-02T08:07:01Z</time>
      </trkpt>
      <trkpt lat="42.92188" lon="0.76497">
        <ele>1346.9443359375</ele>
        <time>2013-03-02T08:07:12Z</time>
      </trkpt>
      <trkpt lat="42.92206" lon="0.76584">
        <ele>1343.5798339844</ele>
        <time>2013-03-02T08:08:06Z</time>
      </trkpt>
      <trkpt lat="42.92204" lon="0.76602">
        <ele>1343.0991210938</ele>
        <time>2013-03-02T08:08:18Z</time>
      </trkpt>
      <trkpt lat="42.92205" lon="0.76631">
        <ele>1340.6958007812</ele>
        <time>2013-03-02T08:08:32Z</time>
      </trkpt>
      <trkpt lat="42.92208" lon="0.76658">
        <ele>1340.2153320312</ele>
        <time>2013-03-02T08:08:47Z</time>
      </trkpt>
      <trkpt lat="42.92217" lon="0.76736">
        <ele>1337.8117675781</ele>
        <time>2013-03-02T08:09:39Z</time>
      </trkpt>
      <trkpt lat="42.92217" lon="0.76757">
        <ele>1336.3698730469</ele>
        <time>2013-03-02T08:09:52Z</time>
      </trkpt>
      <trkpt lat="42.92258" lon="0.76925">
        <ele>1330.1213378906</ele>
        <time>2013-03-02T08:11:37Z</time>
      </trkpt>
      <trkpt lat="42.92261" lon="0.76945">
        <ele>1330.1213378906</ele>
        <time>2013-03-02T08:11:50Z</time>
      </trkpt>
      <trkpt lat="42.92278" lon="0.76988">
        <ele>1330.1213378906</ele>
        <time>2013-03-02T08:12:20Z</time>
      </trkpt>
      <trkpt lat="42.92285" lon="0.76997">
        <ele>1329.640625</ele>
        <time>2013-03-02T08:12:32Z</time>
      </trkpt>
      <trkpt lat="42.92292" lon="0.77005">
        <ele>1326.7568359375</ele>
        <time>2013-03-02T08:12:56Z</time>
      </trkpt>
      <trkpt lat="42.92302" lon="0.77012">
        <ele>1326.2761230469</ele>
        <time>2013-03-02T08:13:06Z</time>
      </trkpt>
      <trkpt lat="42.92331" lon="0.7704">
        <ele>1324.353515625</ele>
        <time>2013-03-02T08:13:38Z</time>
      </trkpt>
      <trkpt lat="42.9235" lon="0.77035">
        <ele>1325.3146972656</ele>
        <time>2013-03-02T08:13:55Z</time>
      </trkpt>
      <trkpt lat="42.92417" lon="0.7704">
        <ele>1320.5080566406</ele>
        <time>2013-03-02T08:14:49Z</time>
      </trkpt>
      <trkpt lat="42.92434" lon="0.77044">
        <ele>1319.546875</ele>
        <time>2013-03-02T08:15:02Z</time>
      </trkpt>
      <trkpt lat="42.92458" lon="0.77059">
        <ele>1317.1435546875</ele>
        <time>2013-03-02T08:15:20Z</time>
      </trkpt>
      <trkpt lat="42.92473" lon="0.77071">
        <ele>1315.7016601562</ele>
        <time>2013-03-02T08:15:31Z</time>
      </trkpt>
      <trkpt lat="42.92486" lon="0.77084">
        <ele>1315.7016601562</ele>
        <time>2013-03-02T08:15:42Z</time>
      </trkpt>
      <trkpt lat="42.92497" lon="0.77094">
        <ele>1315.2209472656</ele>
        <time>2013-03-02T08:15:54Z</time>
      </trkpt>
      <trkpt lat="42.92513" lon="0.77102">
        <ele>1314.2595214844</ele>
        <time>2013-03-02T08:16:06Z</time>
      </trkpt>
      <trkpt lat="42.92524" lon="0.77109">
        <ele>1313.2983398438</ele>
        <time>2013-03-02T08:16:18Z</time>
      </trkpt>
      <trkpt lat="42.92537" lon="0.7712">
        <ele>1313.2983398438</ele>
        <time>2013-03-02T08:16:31Z</time>
      </trkpt>
      <trkpt lat="42.9255" lon="0.77131">
        <ele>1311.3757324219</ele>
        <time>2013-03-02T08:16:42Z</time>
      </trkpt>
      <trkpt lat="42.92622" lon="0.77258">
        <ele>1302.2429199219</ele>
        <time>2013-03-02T08:19:32Z</time>
      </trkpt>
      <trkpt lat="42.92633" lon="0.77271">
        <ele>1301.7624511719</ele>
        <time>2013-03-02T08:19:43Z</time>
      </trkpt>
      <trkpt lat="42.92642" lon="0.77274">
        <ele>1300.8010253906</ele>
        <time>2013-03-02T08:19:55Z</time>
      </trkpt>
      <trkpt lat="42.9279" lon="0.7736">
        <ele>1293.5913085938</ele>
        <time>2013-03-02T08:22:04Z</time>
      </trkpt>
      <trkpt lat="42.928" lon="0.77383">
        <ele>1291.6684570312</ele>
        <time>2013-03-02T08:22:18Z</time>
      </trkpt>
      <trkpt lat="42.92811" lon="0.77398">
        <ele>1290.2265625</ele>
        <time>2013-03-02T08:22:33Z</time>
      </trkpt>
      <trkpt lat="42.92828" lon="0.77405">
        <ele>1290.2265625</ele>
        <time>2013-03-02T08:22:47Z</time>
      </trkpt>
      <trkpt lat="42.92842" lon="0.77416">
        <ele>1289.7458496094</ele>
        <time>2013-03-02T08:23:01Z</time>
      </trkpt>
      <trkpt lat="42.92857" lon="0.77433">
        <ele>1286.8618164062</ele>
        <time>2013-03-02T08:23:14Z</time>
      </trkpt>
      <trkpt lat="42.92864" lon="0.77443">
        <ele>1285.9006347656</ele>
        <time>2013-03-02T08:23:26Z</time>
      </trkpt>
      <trkpt lat="42.92865" lon="0.77427">
        <ele>1293.1105957031</ele>
        <time>2013-03-02T08:26:35Z</time>
      </trkpt>
      <trkpt lat="42.92896" lon="0.77405">
        <ele>1298.8784179688</ele>
        <time>2013-03-02T08:27:45Z</time>
      </trkpt>
      <trkpt lat="42.92913" lon="0.77395">
        <ele>1293.1105957031</ele>
        <time>2013-03-02T08:29:02Z</time>
      </trkpt>
      <trkpt lat="42.92938" lon="0.7738">
        <ele>1295.9946289062</ele>
        <time>2013-03-02T08:29:46Z</time>
      </trkpt>
      <trkpt lat="42.92945" lon="0.77369">
        <ele>1297.9172363281</ele>
        <time>2013-03-02T08:29:59Z</time>
      </trkpt>
      <trkpt lat="42.92949" lon="0.77354">
        <ele>1299.3591308594</ele>
        <time>2013-03-02T08:30:13Z</time>
      </trkpt>
      <trkpt lat="42.92957" lon="0.77341">
        <ele>1300.3205566406</ele>
        <time>2013-03-02T08:30:26Z</time>
      </trkpt>
      <trkpt lat="42.92961" lon="0.77328">
        <ele>1302.7236328125</ele>
        <time>2013-03-02T08:30:40Z</time>
      </trkpt>
      <trkpt lat="42.92962" lon="0.77317">
        <ele>1304.6462402344</ele>
        <time>2013-03-02T08:31:04Z</time>
      </trkpt>
      <trkpt lat="42.92956" lon="0.77307">
        <ele>1305.6076660156</ele>
        <time>2013-03-02T08:31:23Z</time>
      </trkpt>
      <trkpt lat="42.92948" lon="0.77273">
        <ele>1305.6076660156</ele>
        <time>2013-03-02T08:31:56Z</time>
      </trkpt>
      <trkpt lat="42.9294" lon="0.77237">
        <ele>1311.3757324219</ele>
        <time>2013-03-02T08:32:50Z</time>
      </trkpt>
      <trkpt lat="42.92929" lon="0.77174">
        <ele>1316.1821289062</ele>
        <time>2013-03-02T08:33:46Z</time>
      </trkpt>
      <trkpt lat="42.92935" lon="0.77161">
        <ele>1317.6240234375</ele>
        <time>2013-03-02T08:34:00Z</time>
      </trkpt>
      <trkpt lat="42.9295" lon="0.77044">
        <ele>1329.640625</ele>
        <time>2013-03-02T08:35:53Z</time>
      </trkpt>
      <trkpt lat="42.92963" lon="0.76992">
        <ele>1333.4858398438</ele>
        <time>2013-03-02T08:36:47Z</time>
      </trkpt>
      <trkpt lat="42.92968" lon="0.76964">
        <ele>1336.3698730469</ele>
        <time>2013-03-02T08:37:36Z</time>
      </trkpt>
      <trkpt lat="42.9297" lon="0.7695">
        <ele>1337.3310546875</ele>
        <time>2013-03-02T08:37:50Z</time>
      </trkpt>
      <trkpt lat="42.92972" lon="0.76917">
        <ele>1341.1765136719</ele>
        <time>2013-03-02T08:38:19Z</time>
      </trkpt>
      <trkpt lat="42.92975" lon="0.76904">
        <ele>1342.1379394531</ele>
        <time>2013-03-02T08:38:32Z</time>
      </trkpt>
      <trkpt lat="42.93025" lon="0.76822">
        <ele>1353.1928710938</ele>
        <time>2013-03-02T08:40:17Z</time>
      </trkpt>
      <trkpt lat="42.93033" lon="0.76811">
        <ele>1354.634765625</ele>
        <time>2013-03-02T08:40:32Z</time>
      </trkpt>
      <trkpt lat="42.93044" lon="0.76801">
        <ele>1354.634765625</ele>
        <time>2013-03-02T08:40:50Z</time>
      </trkpt>
      <trkpt lat="42.93046" lon="0.76787">
        <ele>1356.0769042969</ele>
        <time>2013-03-02T08:41:03Z</time>
      </trkpt>
      <trkpt lat="42.93053" lon="0.76764">
        <ele>1357.9997558594</ele>
        <time>2013-03-02T08:41:30Z</time>
      </trkpt>
      <trkpt lat="42.93058" lon="0.76753">
        <ele>1360.4028320312</ele>
        <time>2013-03-02T08:41:42Z</time>
      </trkpt>
      <trkpt lat="42.93067" lon="0.76743">
        <ele>1360.8835449219</ele>
        <time>2013-03-02T08:41:58Z</time>
      </trkpt>
      <trkpt lat="42.93074" lon="0.76733">
        <ele>1361.8449707031</ele>
        <time>2013-03-02T08:42:44Z</time>
      </trkpt>
      <trkpt lat="42.93083" lon="0.76721">
        <ele>1363.7673339844</ele>
        <time>2013-03-02T08:43:00Z</time>
      </trkpt>
      <trkpt lat="42.93091" lon="0.76708">
        <ele>1365.2094726562</ele>
        <time>2013-03-02T08:43:15Z</time>
      </trkpt>
      <trkpt lat="42.93094" lon="0.76694">
        <ele>1367.1320800781</ele>
        <time>2013-03-02T08:43:30Z</time>
      </trkpt>
      <trkpt lat="42.93091" lon="0.76673">
        <ele>1369.5354003906</ele>
        <time>2013-03-02T08:43:56Z</time>
      </trkpt>
      <trkpt lat="42.93084" lon="0.76658">
        <ele>1370.9772949219</ele>
        <time>2013-03-02T08:44:12Z</time>
      </trkpt>
      <trkpt lat="42.93073" lon="0.76644">
        <ele>1372.4194335938</ele>
        <time>2013-03-02T08:44:28Z</time>
      </trkpt>
      <trkpt lat="42.9307" lon="0.76629">
        <ele>1374.8227539062</ele>
        <time>2013-03-02T08:44:41Z</time>
      </trkpt>
      <trkpt lat="42.93075" lon="0.76617">
        <ele>1375.7839355469</ele>
        <time>2013-03-02T08:44:54Z</time>
      </trkpt>
      <trkpt lat="42.93083" lon="0.76601">
        <ele>1377.2260742188</ele>
        <time>2013-03-02T08:45:14Z</time>
      </trkpt>
      <trkpt lat="42.93087" lon="0.76585">
        <ele>1379.6291503906</ele>
        <time>2013-03-02T08:45:30Z</time>
      </trkpt>
      <trkpt lat="42.93092" lon="0.76573">
        <ele>1380.5905761719</ele>
        <time>2013-03-02T08:45:44Z</time>
      </trkpt>
      <trkpt lat="42.93097" lon="0.7656">
        <ele>1381.5517578125</ele>
        <time>2013-03-02T08:45:58Z</time>
      </trkpt>
      <trkpt lat="42.93101" lon="0.76548">
        <ele>1382.9936523438</ele>
        <time>2013-03-02T08:46:11Z</time>
      </trkpt>
      <trkpt lat="42.93114" lon="0.76536">
        <ele>1385.3969726562</ele>
        <time>2013-03-02T08:46:39Z</time>
      </trkpt>
      <trkpt lat="42.9312" lon="0.76524">
        <ele>1385.8776855469</ele>
        <time>2013-03-02T08:46:55Z</time>
      </trkpt>
      <trkpt lat="42.93123" lon="0.76512">
        <ele>1387.8002929688</ele>
        <time>2013-03-02T08:48:04Z</time>
      </trkpt>
      <trkpt lat="42.93131" lon="0.76495">
        <ele>1389.2424316406</ele>
        <time>2013-03-02T08:48:35Z</time>
      </trkpt>
      <trkpt lat="42.93126" lon="0.76473">
        <ele>1393.0876464844</ele>
        <time>2013-03-02T08:48:56Z</time>
      </trkpt>
      <trkpt lat="42.93122" lon="0.76453">
        <ele>1394.0490722656</ele>
        <time>2013-03-02T08:49:12Z</time>
      </trkpt>
      <trkpt lat="42.9315" lon="0.76347">
        <ele>1405.5849609375</ele>
        <time>2013-03-02T08:51:12Z</time>
      </trkpt>
      <trkpt lat="42.93161" lon="0.76343">
        <ele>1408.46875</ele>
        <time>2013-03-02T08:51:25Z</time>
      </trkpt>
      <trkpt lat="42.93176" lon="0.7635">
        <ele>1409.4301757812</ele>
        <time>2013-03-02T08:51:45Z</time>
      </trkpt>
      <trkpt lat="42.93184" lon="0.76355">
        <ele>1409.9106445312</ele>
        <time>2013-03-02T08:51:53Z</time>
      </trkpt>
      <trkpt lat="42.93202" lon="0.76348">
        <ele>1412.7946777344</ele>
        <time>2013-03-02T08:52:19Z</time>
      </trkpt>
      <trkpt lat="42.93214" lon="0.7631">
        <ele>1414.7172851562</ele>
        <time>2013-03-02T08:55:54Z</time>
      </trkpt>
      <trkpt lat="42.93215" lon="0.76293">
        <ele>1418.0817871094</ele>
        <time>2013-03-02T08:56:07Z</time>
      </trkpt>
      <trkpt lat="42.93218" lon="0.7627">
        <ele>1420.9660644531</ele>
        <time>2013-03-02T08:56:38Z</time>
      </trkpt>
      <trkpt lat="42.93212" lon="0.76248">
        <ele>1422.888671875</ele>
        <time>2013-03-02T08:56:59Z</time>
      </trkpt>
      <trkpt lat="42.9321" lon="0.76232">
        <ele>1425.2917480469</ele>
        <time>2013-03-02T08:57:12Z</time>
      </trkpt>
      <trkpt lat="42.93223" lon="0.76222">
        <ele>1425.7724609375</ele>
        <time>2013-03-02T08:57:28Z</time>
      </trkpt>
      <trkpt lat="42.93229" lon="0.76215">
        <ele>1430.5791015625</ele>
        <time>2013-03-02T08:57:57Z</time>
      </trkpt>
      <trkpt lat="42.93242" lon="0.76195">
        <ele>1431.0598144531</ele>
        <time>2013-03-02T08:58:13Z</time>
      </trkpt>
      <trkpt lat="42.93251" lon="0.76189">
        <ele>1432.0209960938</ele>
        <time>2013-03-02T08:58:27Z</time>
      </trkpt>
      <trkpt lat="42.93266" lon="0.76196">
        <ele>1433.9436035156</ele>
        <time>2013-03-02T08:58:44Z</time>
      </trkpt>
      <trkpt lat="42.93278" lon="0.76194">
        <ele>1434.9050292969</ele>
        <time>2013-03-02T08:59:11Z</time>
      </trkpt>
      <trkpt lat="42.93309" lon="0.76181">
        <ele>1437.3083496094</ele>
        <time>2013-03-02T08:59:58Z</time>
      </trkpt>
      <trkpt lat="42.93338" lon="0.76197">
        <ele>1437.7890625</ele>
        <time>2013-03-02T09:00:15Z</time>
      </trkpt>
      <trkpt lat="42.93385" lon="0.76154">
        <ele>1444.9987792969</ele>
        <time>2013-03-02T09:01:43Z</time>
      </trkpt>
      <trkpt lat="42.93376" lon="0.76135">
        <ele>1446.9213867188</ele>
        <time>2013-03-02T09:02:03Z</time>
      </trkpt>
      <trkpt lat="42.93367" lon="0.76126">
        <ele>1450.2861328125</ele>
        <time>2013-03-02T09:02:36Z</time>
      </trkpt>
      <trkpt lat="42.9336" lon="0.76116">
        <ele>1453.1701660156</ele>
        <time>2013-03-02T09:02:56Z</time>
      </trkpt>
      <trkpt lat="42.9335" lon="0.76092">
        <ele>1458.9379882812</ele>
        <time>2013-03-02T09:03:34Z</time>
      </trkpt>
      <trkpt lat="42.93358" lon="0.76081">
        <ele>1461.3413085938</ele>
        <time>2013-03-02T09:03:54Z</time>
      </trkpt>
      <trkpt lat="42.93395" lon="0.76102">
        <ele>1463.7443847656</ele>
        <time>2013-03-02T09:04:39Z</time>
      </trkpt>
      <trkpt lat="42.93405" lon="0.76085">
        <ele>1465.6672363281</ele>
        <time>2013-03-02T09:05:09Z</time>
      </trkpt>
      <trkpt lat="42.93421" lon="0.76093">
        <ele>1464.2250976562</ele>
        <time>2013-03-02T09:05:24Z</time>
      </trkpt>
      <trkpt lat="42.93431" lon="0.76112">
        <ele>1463.2639160156</ele>
        <time>2013-03-02T09:05:41Z</time>
      </trkpt>
      <trkpt lat="42.93439" lon="0.76119">
        <ele>1463.7443847656</ele>
        <time>2013-03-02T09:05:55Z</time>
      </trkpt>
      <trkpt lat="42.9344" lon="0.7612">
        <ele>1466.1477050781</ele>
        <time>2013-03-02T09:08:31Z</time>
      </trkpt>
      <trkpt lat="42.93446" lon="0.76116">
        <ele>1466.6284179688</ele>
        <time>2013-03-02T09:10:08Z</time>
      </trkpt>
      <trkpt lat="42.93547" lon="0.76093">
        <ele>1477.68359375</ele>
        <time>2013-03-02T09:14:48Z</time>
      </trkpt>
      <trkpt lat="42.93581" lon="0.76054">
        <ele>1488.7390136719</ele>
        <time>2013-03-02T09:16:31Z</time>
      </trkpt>
      <trkpt lat="42.93585" lon="0.76044">
        <ele>1496.9099121094</ele>
        <time>2013-03-02T09:17:32Z</time>
      </trkpt>
      <trkpt lat="42.93589" lon="0.7604">
        <ele>1499.7939453125</ele>
        <time>2013-03-02T09:18:46Z</time>
      </trkpt>
      <trkpt lat="42.936" lon="0.76022">
        <ele>1502.6779785156</ele>
        <time>2013-03-02T09:19:21Z</time>
      </trkpt>
      <trkpt lat="42.93636" lon="0.76011">
        <ele>1507.9653320312</ele>
        <time>2013-03-02T09:20:37Z</time>
      </trkpt>
      <trkpt lat="42.93656" lon="0.76009">
        <ele>1509.4072265625</ele>
        <time>2013-03-02T09:20:56Z</time>
      </trkpt>
      <trkpt lat="42.93664" lon="0.7598">
        <ele>1519.9816894531</ele>
        <time>2013-03-02T09:22:09Z</time>
      </trkpt>
      <trkpt lat="42.93688" lon="0.75946">
        <ele>1541.1306152344</ele>
        <time>2013-03-02T09:25:32Z</time>
      </trkpt>
      <trkpt lat="42.93685" lon="0.75922">
        <ele>1538.6015625</ele>
      </trkpt>
      <trkpt lat="42.93702" lon="0.75917">
        <ele>1553.1472167969</ele>
        <time>2013-03-02T09:27:18Z</time>
      </trkpt>
      <trkpt lat="42.93701" lon="0.75881">
        <ele>1565.64453125</ele>
        <time>2013-03-02T09:29:11Z</time>
      </trkpt>
      <trkpt lat="42.937" lon="0.75876">
        <ele>1568.5283203125</ele>
        <time>2013-03-02T09:29:27Z</time>
      </trkpt>
      <trkpt lat="42.93701" lon="0.75848">
        <ele>1573.8154296875</ele>
        <time>2013-03-02T09:30:16Z</time>
      </trkpt>
      <trkpt lat="42.93707" lon="0.7583">
        <ele>1586.3127441406</ele>
        <time>2013-03-02T09:32:22Z</time>
      </trkpt>
      <trkpt lat="42.93682" lon="0.75821">
        <ele>1593.0417480469</ele>
        <time>2013-03-02T09:33:24Z</time>
      </trkpt>
      <trkpt lat="42.93683" lon="0.75809">
        <ele>1594.9643554688</ele>
        <time>2013-03-02T09:34:17Z</time>
      </trkpt>
      <trkpt lat="42.93692" lon="0.75788">
        <ele>1596.8872070312</ele>
        <time>2013-03-02T09:35:33Z</time>
      </trkpt>
      <trkpt lat="42.9369" lon="0.75776">
        <ele>1599.7712402344</ele>
        <time>2013-03-02T09:36:03Z</time>
      </trkpt>
      <trkpt lat="42.93706" lon="0.75753">
        <ele>1608.9035644531</ele>
        <time>2013-03-02T09:37:38Z</time>
      </trkpt>
      <trkpt lat="42.93707" lon="0.75745">
        <ele>1611.7875976562</ele>
        <time>2013-03-02T09:38:17Z</time>
      </trkpt>
      <trkpt lat="42.93713" lon="0.75736">
        <ele>1614.6716308594</ele>
        <time>2013-03-02T09:38:52Z</time>
      </trkpt>
      <trkpt lat="42.93706" lon="0.7572">
        <ele>1617.0749511719</ele>
        <time>2013-03-02T09:39:26Z</time>
      </trkpt>
      <trkpt lat="42.93714" lon="0.75696">
        <ele>1622.8427734375</ele>
        <time>2013-03-02T09:39:59Z</time>
      </trkpt>
      <trkpt lat="42.93728" lon="0.75675">
        <ele>1630.052734375</ele>
        <time>2013-03-02T09:41:54Z</time>
      </trkpt>
      <trkpt lat="42.93741" lon="0.7566">
        <ele>1634.3786621094</ele>
        <time>2013-03-02T09:46:01Z</time>
      </trkpt>
      <trkpt lat="42.9375" lon="0.75647">
        <ele>1636.3012695312</ele>
        <time>2013-03-02T09:46:51Z</time>
      </trkpt>
      <trkpt lat="42.93757" lon="0.75626">
        <ele>1643.5109863281</ele>
        <time>2013-03-02T09:47:47Z</time>
      </trkpt>
      <trkpt lat="42.93759" lon="0.75593">
        <ele>1656.0080566406</ele>
        <time>2013-03-02T09:49:51Z</time>
      </trkpt>
      <trkpt lat="42.93764" lon="0.75585">
        <ele>1661.2956542969</ele>
        <time>2013-03-02T09:50:28Z</time>
      </trkpt>
      <trkpt lat="42.93762" lon="0.75564">
        <ele>1664.66015625</ele>
        <time>2013-03-02T09:51:04Z</time>
      </trkpt>
      <trkpt lat="42.93766" lon="0.75552">
        <ele>1669.947265625</ele>
        <time>2013-03-02T09:52:23Z</time>
      </trkpt>
      <trkpt lat="42.93763" lon="0.75542">
        <ele>1673.3120117188</ele>
        <time>2013-03-02T09:52:57Z</time>
      </trkpt>
      <trkpt lat="42.93767" lon="0.75533">
        <ele>1677.6379394531</ele>
        <time>2013-03-02T09:53:32Z</time>
      </trkpt>
      <trkpt lat="42.9377" lon="0.75527">
        <ele>1684.3671875</ele>
        <time>2013-03-02T09:54:29Z</time>
      </trkpt>
      <trkpt lat="42.93773" lon="0.7552">
        <ele>1687.7316894531</ele>
        <time>2013-03-02T09:55:08Z</time>
      </trkpt>
      <trkpt lat="42.93782" lon="0.75511">
        <ele>1694.9416503906</ele>
        <time>2013-03-02T09:56:03Z</time>
      </trkpt>
      <trkpt lat="42.93783" lon="0.75479">
        <ele>1709.3615722656</ele>
        <time>2013-03-02T10:11:20Z</time>
      </trkpt>
      <trkpt lat="42.93799" lon="0.75486">
        <ele>1713.6872558594</ele>
        <time>2013-03-02T10:11:51Z</time>
      </trkpt>
      <trkpt lat="42.93822" lon="0.75486">
        <ele>1720.8972167969</ele>
        <time>2013-03-02T10:12:41Z</time>
      </trkpt>
      <trkpt lat="42.93841" lon="0.7549">
        <ele>1727.6264648438</ele>
        <time>2013-03-02T10:13:48Z</time>
      </trkpt>
      <trkpt lat="42.93836" lon="0.75508">
        <ele>1732.4331054688</ele>
        <time>2013-03-02T10:14:26Z</time>
      </trkpt>
      <trkpt lat="42.93848" lon="0.75504">
        <ele>1737.7202148438</ele>
        <time>2013-03-02T10:15:15Z</time>
      </trkpt>
      <trkpt lat="42.93855" lon="0.75513">
        <ele>1743.0075683594</ele>
        <time>2013-03-02T10:15:53Z</time>
      </trkpt>
      <trkpt lat="42.93864" lon="0.75512">
        <ele>1746.3723144531</ele>
        <time>2013-03-02T10:16:27Z</time>
      </trkpt>
      <trkpt lat="42.93868" lon="0.75521">
        <ele>1750.6979980469</ele>
        <time>2013-03-02T10:17:04Z</time>
      </trkpt>
      <trkpt lat="42.93878" lon="0.75525">
        <ele>1756.4660644531</ele>
        <time>2013-03-02T10:17:56Z</time>
      </trkpt>
      <trkpt lat="42.93889" lon="0.75531">
        <ele>1761.2727050781</ele>
        <time>2013-03-02T10:18:34Z</time>
      </trkpt>
      <trkpt lat="42.93899" lon="0.75539">
        <ele>1765.5986328125</ele>
        <time>2013-03-02T10:19:08Z</time>
      </trkpt>
      <trkpt lat="42.93913" lon="0.75549">
        <ele>1771.8469238281</ele>
        <time>2013-03-02T10:20:13Z</time>
      </trkpt>
      <trkpt lat="42.93918" lon="0.75571">
        <ele>1780.9797363281</ele>
        <time>2013-03-02T10:21:58Z</time>
      </trkpt>
      <trkpt lat="42.93958" lon="0.75596">
        <ele>1793.9575195312</ele>
        <time>2013-03-02T10:24:05Z</time>
      </trkpt>
      <trkpt lat="42.93967" lon="0.75606">
        <ele>1796.8413085938</ele>
        <time>2013-03-02T10:24:25Z</time>
      </trkpt>
      <trkpt lat="42.93976" lon="0.75613">
        <ele>1796.8413085938</ele>
        <time>2013-03-02T10:24:45Z</time>
      </trkpt>
      <trkpt lat="42.93984" lon="0.75624">
        <ele>1797.3220214844</ele>
        <time>2013-03-02T10:25:02Z</time>
      </trkpt>
      <trkpt lat="42.93997" lon="0.75635">
        <ele>1800.2060546875</ele>
        <time>2013-03-02T10:25:33Z</time>
      </trkpt>
      <trkpt lat="42.94012" lon="0.75642">
        <ele>1801.6479492188</ele>
        <time>2013-03-02T10:26:04Z</time>
      </trkpt>
      <trkpt lat="42.9402" lon="0.75647">
        <ele>1802.1284179688</ele>
        <time>2013-03-02T10:26:19Z</time>
      </trkpt>
      <trkpt lat="42.94035" lon="0.75659">
        <ele>1805.0126953125</ele>
        <time>2013-03-02T10:27:59Z</time>
      </trkpt>
      <trkpt lat="42.9404" lon="0.75671">
        <ele>1807.8967285156</ele>
        <time>2013-03-02T10:29:19Z</time>
      </trkpt>
      <trkpt lat="42.94075" lon="0.75698">
        <ele>1817.0290527344</ele>
        <time>2013-03-02T10:30:58Z</time>
      </trkpt>
      <trkpt lat="42.94083" lon="0.75704">
        <ele>1819.4323730469</ele>
        <time>2013-03-02T10:31:16Z</time>
      </trkpt>
      <trkpt lat="42.94091" lon="0.7571">
        <ele>1823.7583007812</ele>
        <time>2013-03-02T10:31:59Z</time>
      </trkpt>
      <trkpt lat="42.94113" lon="0.75726">
        <ele>1836.2556152344</ele>
        <time>2013-03-02T10:33:49Z</time>
      </trkpt>
      <trkpt lat="42.9412" lon="0.75736">
        <ele>1842.5041503906</ele>
        <time>2013-03-02T10:35:17Z</time>
      </trkpt>
      <trkpt lat="42.9414" lon="0.75761">
        <ele>1855.0012207031</ele>
        <time>2013-03-02T10:37:35Z</time>
      </trkpt>
      <trkpt lat="42.94149" lon="0.75763">
        <ele>1860.2883300781</ele>
        <time>2013-03-02T10:38:22Z</time>
      </trkpt>
      <trkpt lat="42.94156" lon="0.75771">
        <ele>1866.0561523438</ele>
        <time>2013-03-02T10:39:17Z</time>
      </trkpt>
      <trkpt lat="42.9417" lon="0.7578">
        <ele>1868.9404296875</ele>
        <time>2013-03-02T10:40:30Z</time>
      </trkpt>
      <trkpt lat="42.94179" lon="0.75785">
        <ele>1873.2663574219</ele>
        <time>2013-03-02T10:41:02Z</time>
      </trkpt>
      <trkpt lat="42.94195" lon="0.75797">
        <ele>1882.8791503906</ele>
        <time>2013-03-02T10:43:06Z</time>
      </trkpt>
      <trkpt lat="42.94216" lon="0.7581">
        <ele>1889.6086425781</ele>
        <time>2013-03-02T10:44:26Z</time>
      </trkpt>
      <trkpt lat="42.94225" lon="0.7581">
        <ele>1892.4926757812</ele>
        <time>2013-03-02T10:44:43Z</time>
      </trkpt>
      <trkpt lat="42.94258" lon="0.75835">
        <ele>1901.6252441406</ele>
        <time>2013-03-02T10:46:15Z</time>
      </trkpt>
      <trkpt lat="42.94268" lon="0.75842">
        <ele>1904.0285644531</ele>
        <time>2013-03-02T10:46:36Z</time>
      </trkpt>
      <trkpt lat="42.94278" lon="0.75842">
        <ele>1906.431640625</ele>
        <time>2013-03-02T10:47:08Z</time>
      </trkpt>
      <trkpt lat="42.94274" lon="0.75847">
        <ele>1906.431640625</ele>
        <time>2013-03-02T10:56:49Z</time>
      </trkpt>
      <trkpt lat="42.94268" lon="0.75858">
        <ele>1901.14453125</ele>
        <time>2013-03-02T10:57:12Z</time>
      </trkpt>
      <trkpt lat="42.94273" lon="0.75868">
        <ele>1897.7797851562</ele>
        <time>2013-03-02T10:57:27Z</time>
      </trkpt>
      <trkpt lat="42.94274" lon="0.75885">
        <ele>1894.8957519531</ele>
        <time>2013-03-02T10:58:05Z</time>
      </trkpt>
      <trkpt lat="42.94271" lon="0.75898">
        <ele>1892.0119628906</ele>
        <time>2013-03-02T10:58:20Z</time>
      </trkpt>
      <trkpt lat="42.94281" lon="0.75917">
        <ele>1886.724609375</ele>
        <time>2013-03-02T10:58:44Z</time>
      </trkpt>
      <trkpt lat="42.94288" lon="0.75927">
        <ele>1885.2827148438</ele>
        <time>2013-03-02T10:58:55Z</time>
      </trkpt>
      <trkpt lat="42.94324" lon="0.75973">
        <ele>1885.7634277344</ele>
        <time>2013-03-02T10:59:51Z</time>
      </trkpt>
      <trkpt lat="42.94337" lon="0.76005">
        <ele>1884.3215332031</ele>
        <time>2013-03-02T11:00:22Z</time>
      </trkpt>
      <trkpt lat="42.94341" lon="0.7603">
        <ele>1884.8022460938</ele>
        <time>2013-03-02T11:00:49Z</time>
      </trkpt>
      <trkpt lat="42.94351" lon="0.76046">
        <ele>1891.53125</ele>
        <time>2013-03-02T11:01:19Z</time>
      </trkpt>
      <trkpt lat="42.9436" lon="0.76051">
        <ele>1889.1279296875</ele>
        <time>2013-03-02T11:01:45Z</time>
      </trkpt>
      <trkpt lat="42.94386" lon="0.76076">
        <ele>1882.8791503906</ele>
        <time>2013-03-02T11:02:26Z</time>
      </trkpt>
      <trkpt lat="42.94393" lon="0.76084">
        <ele>1879.0339355469</ele>
        <time>2013-03-02T11:02:37Z</time>
      </trkpt>
      <trkpt lat="42.94398" lon="0.76097">
        <ele>1873.2663574219</ele>
        <time>2013-03-02T11:02:59Z</time>
      </trkpt>
      <trkpt lat="42.94421" lon="0.76144">
        <ele>1861.73046875</ele>
        <time>2013-03-02T11:03:56Z</time>
      </trkpt>
      <trkpt lat="42.94442" lon="0.76182">
        <ele>1860.2883300781</ele>
        <time>2013-03-02T11:04:43Z</time>
      </trkpt>
      <trkpt lat="42.94457" lon="0.76219">
        <ele>1866.5368652344</ele>
        <time>2013-03-02T11:05:47Z</time>
      </trkpt>
      <trkpt lat="42.94469" lon="0.76254">
        <ele>1867.9787597656</ele>
        <time>2013-03-02T11:06:41Z</time>
      </trkpt>
      <trkpt lat="42.94488" lon="0.76309">
        <ele>1883.3598632812</ele>
        <time>2013-03-02T11:08:58Z</time>
      </trkpt>
      <trkpt lat="42.94494" lon="0.76334">
        <ele>1884.8022460938</ele>
        <time>2013-03-02T11:09:35Z</time>
      </trkpt>
      <trkpt lat="42.94501" lon="0.76345">
        <ele>1887.2053222656</ele>
        <time>2013-03-02T11:10:01Z</time>
      </trkpt>
      <trkpt lat="42.94549" lon="0.76403">
        <ele>1889.1279296875</ele>
        <time>2013-03-02T11:13:00Z</time>
      </trkpt>
      <trkpt lat="42.94562" lon="0.76418">
        <ele>1891.0505371094</ele>
        <time>2013-03-02T11:13:39Z</time>
      </trkpt>
      <trkpt lat="42.9457" lon="0.76431">
        <ele>1890.0893554688</ele>
        <time>2013-03-02T11:13:54Z</time>
      </trkpt>
      <trkpt lat="42.94576" lon="0.76444">
        <ele>1892.9731445312</ele>
        <time>2013-03-02T11:14:15Z</time>
      </trkpt>
      <trkpt lat="42.94587" lon="0.76465">
        <ele>1894.8957519531</ele>
        <time>2013-03-02T11:14:56Z</time>
      </trkpt>
      <trkpt lat="42.94624" lon="0.7656">
        <ele>1908.3542480469</ele>
        <time>2013-03-02T11:19:19Z</time>
      </trkpt>
      <trkpt lat="42.94632" lon="0.76568">
        <ele>1908.8349609375</ele>
        <time>2013-03-02T11:19:34Z</time>
      </trkpt>
      <trkpt lat="42.9464" lon="0.76585">
        <ele>1912.6801757812</ele>
        <time>2013-03-02T11:20:03Z</time>
      </trkpt>
      <trkpt lat="42.94651" lon="0.76594">
        <ele>1917.0063476562</ele>
        <time>2013-03-02T11:20:36Z</time>
      </trkpt>
      <trkpt lat="42.9466" lon="0.766">
        <ele>1921.8127441406</ele>
        <time>2013-03-02T11:21:20Z</time>
      </trkpt>
      <trkpt lat="42.94661" lon="0.76602">
        <ele>1923.2548828125</ele>
        <time>2013-03-02T11:38:55Z</time>
      </trkpt>
      <trkpt lat="42.94656" lon="0.76595">
        <ele>1921.8127441406</ele>
        <time>2013-03-02T11:39:46Z</time>
      </trkpt>
      <trkpt lat="42.94647" lon="0.76593">
        <ele>1918.4482421875</ele>
        <time>2013-03-02T11:40:48Z</time>
      </trkpt>
      <trkpt lat="42.94639" lon="0.76585">
        <ele>1916.5256347656</ele>
        <time>2013-03-02T11:41:04Z</time>
      </trkpt>
      <trkpt lat="42.94627" lon="0.76562">
        <ele>1911.23828125</ele>
        <time>2013-03-02T11:41:31Z</time>
      </trkpt>
      <trkpt lat="42.94612" lon="0.76533">
        <ele>1907.3930664062</ele>
        <time>2013-03-02T11:42:04Z</time>
      </trkpt>
      <trkpt lat="42.946" lon="0.76493">
        <ele>1903.0671386719</ele>
        <time>2013-03-02T11:42:54Z</time>
      </trkpt>
      <trkpt lat="42.94588" lon="0.76465">
        <ele>1898.2602539062</ele>
        <time>2013-03-02T11:43:28Z</time>
      </trkpt>
      <trkpt lat="42.94547" lon="0.76404">
        <ele>1890.0893554688</ele>
        <time>2013-03-02T11:45:08Z</time>
      </trkpt>
      <trkpt lat="42.94495" lon="0.76336">
        <ele>1886.244140625</ele>
        <time>2013-03-02T11:47:17Z</time>
      </trkpt>
      <trkpt lat="42.94491" lon="0.76323">
        <ele>1885.2827148438</ele>
        <time>2013-03-02T11:47:31Z</time>
      </trkpt>
      <trkpt lat="42.94487" lon="0.7631">
        <ele>1883.3598632812</ele>
        <time>2013-03-02T11:47:47Z</time>
      </trkpt>
      <trkpt lat="42.94464" lon="0.7623">
        <ele>1867.498046875</ele>
        <time>2013-03-02T11:49:22Z</time>
      </trkpt>
      <trkpt lat="42.94454" lon="0.76202">
        <ele>1865.5756835938</ele>
        <time>2013-03-02T11:49:45Z</time>
      </trkpt>
      <trkpt lat="42.94438" lon="0.76171">
        <ele>1859.8076171875</ele>
        <time>2013-03-02T11:50:13Z</time>
      </trkpt>
      <trkpt lat="42.94421" lon="0.76141">
        <ele>1861.73046875</ele>
        <time>2013-03-02T11:50:56Z</time>
      </trkpt>
      <trkpt lat="42.94415" lon="0.76129">
        <ele>1862.6916503906</ele>
        <time>2013-03-02T11:51:13Z</time>
      </trkpt>
      <trkpt lat="42.944" lon="0.76093">
        <ele>1875.6694335938</ele>
        <time>2013-03-02T11:52:12Z</time>
      </trkpt>
      <trkpt lat="42.9439" lon="0.7608">
        <ele>1878.5534667969</ele>
        <time>2013-03-02T11:52:48Z</time>
      </trkpt>
      <trkpt lat="42.94382" lon="0.76071">
        <ele>1881.4372558594</ele>
        <time>2013-03-02T11:53:08Z</time>
      </trkpt>
      <trkpt lat="42.9436" lon="0.76048">
        <ele>1888.6474609375</ele>
        <time>2013-03-02T11:53:57Z</time>
      </trkpt>
      <trkpt lat="42.94352" lon="0.76043">
        <ele>1890.0893554688</ele>
        <time>2013-03-02T11:54:30Z</time>
      </trkpt>
      <trkpt lat="42.94342" lon="0.76035">
        <ele>1888.1667480469</ele>
        <time>2013-03-02T11:54:46Z</time>
      </trkpt>
      <trkpt lat="42.94338" lon="0.7601">
        <ele>1883.3598632812</ele>
        <time>2013-03-02T11:55:04Z</time>
      </trkpt>
      <trkpt lat="42.94333" lon="0.75987">
        <ele>1884.8022460938</ele>
        <time>2013-03-02T11:55:24Z</time>
      </trkpt>
      <trkpt lat="42.94324" lon="0.75968">
        <ele>1884.3215332031</ele>
        <time>2013-03-02T11:55:40Z</time>
      </trkpt>
      <trkpt lat="42.9429" lon="0.75923">
        <ele>1883.8405761719</ele>
        <time>2013-03-02T11:57:04Z</time>
      </trkpt>
      <trkpt lat="42.94283" lon="0.75914">
        <ele>1887.2053222656</ele>
        <time>2013-03-02T11:57:19Z</time>
      </trkpt>
      <trkpt lat="42.94274" lon="0.75899">
        <ele>1892.0119628906</ele>
        <time>2013-03-02T11:57:52Z</time>
      </trkpt>
      <trkpt lat="42.94273" lon="0.75886">
        <ele>1894.8957519531</ele>
        <time>2013-03-02T11:58:11Z</time>
      </trkpt>
      <trkpt lat="42.94275" lon="0.75866">
        <ele>1900.6638183594</ele>
        <time>2013-03-02T11:58:59Z</time>
      </trkpt>
      <trkpt lat="42.94271" lon="0.75853">
        <ele>1905.9509277344</ele>
        <time>2013-03-02T11:59:22Z</time>
      </trkpt>
      <trkpt lat="42.94276" lon="0.75843">
        <ele>1907.3930664062</ele>
        <time>2013-03-02T11:59:58Z</time>
      </trkpt>
      <trkpt lat="42.94277" lon="0.75845">
        <ele>1906.9123535156</ele>
        <time>2013-03-02T12:03:47Z</time>
      </trkpt>
      <trkpt lat="42.94276" lon="0.75844">
        <ele>1906.431640625</ele>
        <time>2013-03-02T12:12:12Z</time>
      </trkpt>
      <trkpt lat="42.94277" lon="0.7584">
        <ele>1903.0671386719</ele>
        <time>2013-03-02T12:59:55Z</time>
      </trkpt>
      <trkpt lat="42.94271" lon="0.75843">
        <ele>1900.6638183594</ele>
        <time>2013-03-02T13:08:27Z</time>
      </trkpt>
      <trkpt lat="42.94253" lon="0.75829">
        <ele>1896.818359375</ele>
        <time>2013-03-02T13:08:55Z</time>
      </trkpt>
      <trkpt lat="42.94234" lon="0.75813">
        <ele>1889.6086425781</ele>
        <time>2013-03-02T13:09:19Z</time>
      </trkpt>
      <trkpt lat="42.94218" lon="0.75807">
        <ele>1887.6860351562</ele>
        <time>2013-03-02T13:09:48Z</time>
      </trkpt>
      <trkpt lat="42.94207" lon="0.758">
        <ele>1881.4372558594</ele>
        <time>2013-03-02T13:10:14Z</time>
      </trkpt>
      <trkpt lat="42.94192" lon="0.75793">
        <ele>1875.6694335938</ele>
        <time>2013-03-02T13:10:43Z</time>
      </trkpt>
      <trkpt lat="42.9418" lon="0.75784">
        <ele>1868.9404296875</ele>
        <time>2013-03-02T13:11:11Z</time>
      </trkpt>
      <trkpt lat="42.94147" lon="0.75761">
        <ele>1851.6364746094</ele>
        <time>2013-03-02T13:13:29Z</time>
      </trkpt>
      <trkpt lat="42.94137" lon="0.75761">
        <ele>1848.2717285156</ele>
        <time>2013-03-02T13:13:42Z</time>
      </trkpt>
      <trkpt lat="42.94131" lon="0.75752">
        <ele>1843.9460449219</ele>
        <time>2013-03-02T13:14:08Z</time>
      </trkpt>
      <trkpt lat="42.94123" lon="0.7574">
        <ele>1839.1394042969</ele>
        <time>2013-03-02T13:14:35Z</time>
      </trkpt>
      <trkpt lat="42.94116" lon="0.75733">
        <ele>1833.8520507812</ele>
        <time>2013-03-02T13:15:08Z</time>
      </trkpt>
      <trkpt lat="42.94115" lon="0.75721">
        <ele>1829.0454101562</ele>
        <time>2013-03-02T13:15:59Z</time>
      </trkpt>
      <trkpt lat="42.94106" lon="0.75723">
        <ele>1826.6423339844</ele>
        <time>2013-03-02T13:16:30Z</time>
      </trkpt>
      <trkpt lat="42.94093" lon="0.75713">
        <ele>1819.4323730469</ele>
        <time>2013-03-02T13:17:01Z</time>
      </trkpt>
      <trkpt lat="42.94076" lon="0.75699">
        <ele>1812.2224121094</ele>
        <time>2013-03-02T13:17:42Z</time>
      </trkpt>
      <trkpt lat="42.9404" lon="0.75665">
        <ele>1800.6865234375</ele>
        <time>2013-03-02T13:19:19Z</time>
      </trkpt>
      <trkpt lat="42.94014" lon="0.75648">
        <ele>1796.3608398438</ele>
        <time>2013-03-02T13:22:48Z</time>
      </trkpt>
      <trkpt lat="42.93992" lon="0.75628">
        <ele>1792.0349121094</ele>
        <time>2013-03-02T13:23:28Z</time>
      </trkpt>
      <trkpt lat="42.93981" lon="0.75616">
        <ele>1792.0349121094</ele>
        <time>2013-03-02T13:23:45Z</time>
      </trkpt>
      <trkpt lat="42.93973" lon="0.75611">
        <ele>1790.5927734375</ele>
        <time>2013-03-02T13:24:19Z</time>
      </trkpt>
      <trkpt lat="42.93954" lon="0.75593">
        <ele>1788.1896972656</ele>
        <time>2013-03-02T13:24:48Z</time>
      </trkpt>
      <trkpt lat="42.93926" lon="0.75577">
        <ele>1782.4216308594</ele>
        <time>2013-03-02T13:25:30Z</time>
      </trkpt>
      <trkpt lat="42.93918" lon="0.75567">
        <ele>1777.6149902344</ele>
        <time>2013-03-02T13:26:03Z</time>
      </trkpt>
      <trkpt lat="42.93919" lon="0.75568">
        <ele>1776.6538085938</ele>
        <time>2013-03-02T13:28:46Z</time>
      </trkpt>
      <trkpt lat="42.93914" lon="0.75561">
        <ele>1773.7697753906</ele>
        <time>2013-03-02T13:31:35Z</time>
      </trkpt>
      <trkpt lat="42.93896" lon="0.75541">
        <ele>1764.6372070312</ele>
        <time>2013-03-02T13:32:16Z</time>
      </trkpt>
      <trkpt lat="42.93891" lon="0.75531">
        <ele>1760.7919921875</ele>
        <time>2013-03-02T13:32:35Z</time>
      </trkpt>
      <trkpt lat="42.93881" lon="0.75524">
        <ele>1755.5046386719</ele>
        <time>2013-03-02T13:33:01Z</time>
      </trkpt>
      <trkpt lat="42.9387" lon="0.75521">
        <ele>1750.6979980469</ele>
        <time>2013-03-02T13:33:23Z</time>
      </trkpt>
      <trkpt lat="42.93863" lon="0.75511">
        <ele>1747.3334960938</ele>
        <time>2013-03-02T13:33:49Z</time>
      </trkpt>
      <trkpt lat="42.93852" lon="0.75507">
        <ele>1739.6428222656</ele>
        <time>2013-03-02T13:34:30Z</time>
      </trkpt>
      <trkpt lat="42.93845" lon="0.75505">
        <ele>1734.3557128906</ele>
        <time>2013-03-02T13:34:54Z</time>
      </trkpt>
      <trkpt lat="42.93839" lon="0.75497">
        <ele>1730.0297851562</ele>
        <time>2013-03-02T13:35:28Z</time>
      </trkpt>
      <trkpt lat="42.93823" lon="0.7549">
        <ele>1721.8583984375</ele>
        <time>2013-03-02T13:35:57Z</time>
      </trkpt>
      <trkpt lat="42.93805" lon="0.75485">
        <ele>1715.6101074219</ele>
        <time>2013-03-02T13:36:30Z</time>
      </trkpt>
      <trkpt lat="42.93796" lon="0.75481">
        <ele>1712.7260742188</ele>
        <time>2013-03-02T13:36:47Z</time>
      </trkpt>
      <trkpt lat="42.93786" lon="0.7548">
        <ele>1709.8420410156</ele>
        <time>2013-03-02T13:37:04Z</time>
      </trkpt>
      <trkpt lat="42.93778" lon="0.7548">
        <ele>1707.9194335938</ele>
        <time>2013-03-02T13:37:30Z</time>
      </trkpt>
      <trkpt lat="42.93778" lon="0.7548">
        <ele>1707.9194335938</ele>
        <time>2013-03-02T13:37:30Z</time>
      </trkpt>
      <trkpt lat="42.93781" lon="0.75501">
        <ele>1699.267578125</ele>
        <time>2013-03-02T13:40:23Z</time>
      </trkpt>
      <trkpt lat="42.93781" lon="0.7552">
        <ele>1693.4997558594</ele>
        <time>2013-03-02T13:40:48Z</time>
      </trkpt>
      <trkpt lat="42.9377" lon="0.75526">
        <ele>1688.6931152344</ele>
        <time>2013-03-02T13:41:19Z</time>
      </trkpt>
      <trkpt lat="42.93764" lon="0.75541">
        <ele>1678.5993652344</ele>
        <time>2013-03-02T13:42:07Z</time>
      </trkpt>
      <trkpt lat="42.93763" lon="0.75566">
        <ele>1666.5827636719</ele>
        <time>2013-03-02T13:44:43Z</time>
      </trkpt>
      <trkpt lat="42.93762" lon="0.7559">
        <ele>1656.9694824219</ele>
        <time>2013-03-02T13:45:47Z</time>
      </trkpt>
      <trkpt lat="42.93756" lon="0.75624">
        <ele>1649.2790527344</ele>
        <time>2013-03-02T13:46:09Z</time>
      </trkpt>
      <trkpt lat="42.93751" lon="0.75646">
        <ele>1641.5883789062</ele>
        <time>2013-03-02T13:46:35Z</time>
      </trkpt>
      <trkpt lat="42.93736" lon="0.75665">
        <ele>1635.8205566406</ele>
        <time>2013-03-02T13:46:47Z</time>
      </trkpt>
      <trkpt lat="42.93719" lon="0.75685">
        <ele>1628.6108398438</ele>
        <time>2013-03-02T13:47:17Z</time>
      </trkpt>
      <trkpt lat="42.93705" lon="0.75718">
        <ele>1618.5168457031</ele>
        <time>2013-03-02T13:47:54Z</time>
      </trkpt>
      <trkpt lat="42.93713" lon="0.75735">
        <ele>1615.6330566406</ele>
        <time>2013-03-02T13:48:24Z</time>
      </trkpt>
      <trkpt lat="42.93704" lon="0.75753">
        <ele>1614.6716308594</ele>
        <time>2013-03-02T13:49:18Z</time>
      </trkpt>
      <trkpt lat="42.93701" lon="0.75764">
        <ele>1609.3842773438</ele>
        <time>2013-03-02T13:49:41Z</time>
      </trkpt>
      <trkpt lat="42.93694" lon="0.75769">
        <ele>1601.6938476562</ele>
        <time>2013-03-02T13:50:04Z</time>
      </trkpt>
      <trkpt lat="42.9369" lon="0.75784">
        <ele>1594.4836425781</ele>
        <time>2013-03-02T13:51:05Z</time>
      </trkpt>
      <trkpt lat="42.93684" lon="0.75809">
        <ele>1587.7546386719</ele>
        <time>2013-03-02T13:51:22Z</time>
      </trkpt>
      <trkpt lat="42.9368" lon="0.75822">
        <ele>1584.3901367188</ele>
        <time>2013-03-02T13:51:32Z</time>
      </trkpt>
      <trkpt lat="42.93695" lon="0.75825">
        <ele>1581.9868164062</ele>
        <time>2013-03-02T13:52:16Z</time>
      </trkpt>
      <trkpt lat="42.93705" lon="0.75832">
        <ele>1574.7768554688</ele>
        <time>2013-03-02T13:52:46Z</time>
      </trkpt>
      <trkpt lat="42.93699" lon="0.75848">
        <ele>1573.3349609375</ele>
        <time>2013-03-02T13:53:02Z</time>
      </trkpt>
      <trkpt lat="42.937" lon="0.75875">
        <ele>1559.8762207031</ele>
        <time>2013-03-02T13:53:56Z</time>
      </trkpt>
      <trkpt lat="42.93699" lon="0.75917">
        <ele>1542.0920410156</ele>
        <time>2013-03-02T13:55:07Z</time>
      </trkpt>
      <trkpt lat="42.93684" lon="0.75919">
        <ele>1539.2080078125</ele>
        <time>2013-03-02T13:55:22Z</time>
      </trkpt>
      <trkpt lat="42.93688" lon="0.75946">
        <ele>1535.109375</ele>
      </trkpt>
      <trkpt lat="42.93667" lon="0.75979">
        <ele>1506.5231933594</ele>
        <time>2013-03-02T13:57:19Z</time>
      </trkpt>
      <trkpt lat="42.93657" lon="0.76008">
        <ele>1514.91796875</ele>
      </trkpt>
      <trkpt lat="42.93636" lon="0.7601">
        <ele>1506.0424804688</ele>
        <time>2013-03-02T13:57:29Z</time>
      </trkpt>
      <trkpt lat="42.93598" lon="0.76026">
        <ele>1496.9099121094</ele>
        <time>2013-03-02T13:58:01Z</time>
      </trkpt>
      <trkpt lat="42.93573" lon="0.76059">
        <ele>1483.9321289062</ele>
        <time>2013-03-02T14:00:57Z</time>
      </trkpt>
      <trkpt lat="42.93543" lon="0.76104">
        <ele>1482.80078125</ele>
      </trkpt>
      <trkpt lat="42.93439" lon="0.76123">
        <ele>1462.3024902344</ele>
        <time>2013-03-02T14:07:06Z</time>
      </trkpt>
      <trkpt lat="42.93436" lon="0.76117">
        <ele>1462.3024902344</ele>
        <time>2013-03-02T14:15:29Z</time>
      </trkpt>
      <trkpt lat="42.93433" lon="0.76111">
        <ele>1461.3413085938</ele>
        <time>2013-03-02T14:18:35Z</time>
      </trkpt>
      <trkpt lat="42.93433" lon="0.7611">
        <ele>1460.8605957031</ele>
        <time>2013-03-02T14:21:56Z</time>
      </trkpt>
      <trkpt lat="42.93423" lon="0.76101">
        <ele>1459.4187011719</ele>
        <time>2013-03-02T14:22:26Z</time>
      </trkpt>
      <trkpt lat="42.9341" lon="0.76087">
        <ele>1458.4572753906</ele>
        <time>2013-03-02T14:22:43Z</time>
      </trkpt>
      <trkpt lat="42.93394" lon="0.76099">
        <ele>1458.4572753906</ele>
        <time>2013-03-02T14:23:01Z</time>
      </trkpt>
      <trkpt lat="42.93357" lon="0.76079">
        <ele>1455.0927734375</ele>
        <time>2013-03-02T14:23:38Z</time>
      </trkpt>
      <trkpt lat="42.93348" lon="0.76094">
        <ele>1451.2473144531</ele>
        <time>2013-03-02T14:23:57Z</time>
      </trkpt>
      <trkpt lat="42.93366" lon="0.76126">
        <ele>1448.36328125</ele>
        <time>2013-03-02T14:24:08Z</time>
      </trkpt>
      <trkpt lat="42.93379" lon="0.76137">
        <ele>1444.0375976562</ele>
        <time>2013-03-02T14:24:31Z</time>
      </trkpt>
      <trkpt lat="42.93381" lon="0.76152">
        <ele>1443.076171875</ele>
        <time>2013-03-02T14:25:07Z</time>
      </trkpt>
      <trkpt lat="42.93333" lon="0.76202">
        <ele>1437.3083496094</ele>
        <time>2013-03-02T14:25:56Z</time>
      </trkpt>
      <trkpt lat="42.93307" lon="0.76183">
        <ele>1435.8662109375</ele>
        <time>2013-03-02T14:26:08Z</time>
      </trkpt>
      <trkpt lat="42.93278" lon="0.76197">
        <ele>1431.5402832031</ele>
        <time>2013-03-02T14:26:48Z</time>
      </trkpt>
      <trkpt lat="42.93245" lon="0.76194">
        <ele>1431.0598144531</ele>
        <time>2013-03-02T14:27:03Z</time>
      </trkpt>
      <trkpt lat="42.93231" lon="0.76214">
        <ele>1428.6564941406</ele>
        <time>2013-03-02T14:27:34Z</time>
      </trkpt>
      <trkpt lat="42.93211" lon="0.76236">
        <ele>1423.8498535156</ele>
        <time>2013-03-02T14:27:58Z</time>
      </trkpt>
      <trkpt lat="42.93214" lon="0.76252">
        <ele>1421.9272460938</ele>
        <time>2013-03-02T14:28:10Z</time>
      </trkpt>
      <trkpt lat="42.93223" lon="0.76272">
        <ele>1417.1206054688</ele>
        <time>2013-03-02T14:28:30Z</time>
      </trkpt>
      <trkpt lat="42.93221" lon="0.76291">
        <ele>1414.2365722656</ele>
        <time>2013-03-02T14:28:44Z</time>
      </trkpt>
      <trkpt lat="42.93215" lon="0.7631">
        <ele>1413.755859375</ele>
        <time>2013-03-02T14:29:09Z</time>
      </trkpt>
      <trkpt lat="42.9321" lon="0.76329">
        <ele>1412.3139648438</ele>
        <time>2013-03-02T14:29:22Z</time>
      </trkpt>
      <trkpt lat="42.93202" lon="0.76351">
        <ele>1407.0268554688</ele>
        <time>2013-03-02T14:29:45Z</time>
      </trkpt>
      <trkpt lat="42.93182" lon="0.76359">
        <ele>1406.0654296875</ele>
        <time>2013-03-02T14:30:01Z</time>
      </trkpt>
      <trkpt lat="42.93162" lon="0.76356">
        <ele>1404.1430664062</ele>
        <time>2013-03-02T14:30:17Z</time>
      </trkpt>
      <trkpt lat="42.93153" lon="0.76366">
        <ele>1401.7395019531</ele>
        <time>2013-03-02T14:30:27Z</time>
      </trkpt>
      <trkpt lat="42.93149" lon="0.76382">
        <ele>1398.85546875</ele>
        <time>2013-03-02T14:30:39Z</time>
      </trkpt>
      <trkpt lat="42.93129" lon="0.76456">
        <ele>1390.6843261719</ele>
        <time>2013-03-02T14:31:48Z</time>
      </trkpt>
      <trkpt lat="42.93133" lon="0.76484">
        <ele>1385.3969726562</ele>
        <time>2013-03-02T14:32:07Z</time>
      </trkpt>
      <trkpt lat="42.9313" lon="0.76513">
        <ele>1382.9936523438</ele>
        <time>2013-03-02T14:32:24Z</time>
      </trkpt>
      <trkpt lat="42.93127" lon="0.76539">
        <ele>1382.0324707031</ele>
        <time>2013-03-02T14:32:38Z</time>
      </trkpt>
      <trkpt lat="42.93113" lon="0.76555">
        <ele>1379.1484375</ele>
        <time>2013-03-02T14:32:50Z</time>
      </trkpt>
      <trkpt lat="42.93102" lon="0.76563">
        <ele>1376.2646484375</ele>
        <time>2013-03-02T14:32:57Z</time>
      </trkpt>
      <trkpt lat="42.93094" lon="0.76572">
        <ele>1375.3032226562</ele>
        <time>2013-03-02T14:33:15Z</time>
      </trkpt>
      <trkpt lat="42.93087" lon="0.7659">
        <ele>1372.9001464844</ele>
        <time>2013-03-02T14:33:28Z</time>
      </trkpt>
      <trkpt lat="42.93082" lon="0.76603">
        <ele>1372.9001464844</ele>
        <time>2013-03-02T14:33:40Z</time>
      </trkpt>
      <trkpt lat="42.93075" lon="0.7662">
        <ele>1369.5354003906</ele>
        <time>2013-03-02T14:33:56Z</time>
      </trkpt>
      <trkpt lat="42.9308" lon="0.76648">
        <ele>1367.1320800781</ele>
        <time>2013-03-02T14:34:14Z</time>
      </trkpt>
      <trkpt lat="42.93091" lon="0.76673">
        <ele>1366.1706542969</ele>
        <time>2013-03-02T14:34:32Z</time>
      </trkpt>
      <trkpt lat="42.931" lon="0.7668">
        <ele>1364.248046875</ele>
        <time>2013-03-02T14:34:37Z</time>
      </trkpt>
      <trkpt lat="42.93101" lon="0.76701">
        <ele>1361.8449707031</ele>
        <time>2013-03-02T14:34:56Z</time>
      </trkpt>
      <trkpt lat="42.93098" lon="0.76714">
        <ele>1358.9609375</ele>
        <time>2013-03-02T14:35:15Z</time>
      </trkpt>
      <trkpt lat="42.93084" lon="0.76734">
        <ele>1358.9609375</ele>
        <time>2013-03-02T14:35:33Z</time>
      </trkpt>
      <trkpt lat="42.93074" lon="0.76747">
        <ele>1357.5190429688</ele>
        <time>2013-03-02T14:35:57Z</time>
      </trkpt>
      <trkpt lat="42.93067" lon="0.76752">
        <ele>1355.5961914062</ele>
        <time>2013-03-02T14:37:06Z</time>
      </trkpt>
      <trkpt lat="42.93057" lon="0.76762">
        <ele>1353.1928710938</ele>
        <time>2013-03-02T14:37:16Z</time>
      </trkpt>
      <trkpt lat="42.93049" lon="0.76778">
        <ele>1352.2314453125</ele>
        <time>2013-03-02T14:37:27Z</time>
      </trkpt>
      <trkpt lat="42.93052" lon="0.76782">
        <ele>1350.7895507812</ele>
        <time>2013-03-02T14:37:56Z</time>
      </trkpt>
      <trkpt lat="42.93045" lon="0.76804">
        <ele>1349.8283691406</ele>
        <time>2013-03-02T14:38:17Z</time>
      </trkpt>
      <trkpt lat="42.93037" lon="0.76811">
        <ele>1348.8669433594</ele>
        <time>2013-03-02T14:38:48Z</time>
      </trkpt>
      <trkpt lat="42.9298" lon="0.76922">
        <ele>1336.8503417969</ele>
        <time>2013-03-02T14:40:08Z</time>
      </trkpt>
      <trkpt lat="42.92966" lon="0.76998">
        <ele>1327.2375488281</ele>
        <time>2013-03-02T14:41:32Z</time>
      </trkpt>
      <trkpt lat="42.92961" lon="0.7701">
        <ele>1326.7568359375</ele>
        <time>2013-03-02T14:41:42Z</time>
      </trkpt>
      <trkpt lat="42.92944" lon="0.77164">
        <ele>1309.453125</ele>
        <time>2013-03-02T14:43:30Z</time>
      </trkpt>
      <trkpt lat="42.92939" lon="0.77181">
        <ele>1307.5302734375</ele>
        <time>2013-03-02T14:43:40Z</time>
      </trkpt>
      <trkpt lat="42.92946" lon="0.77208">
        <ele>1306.5688476562</ele>
        <time>2013-03-02T14:43:58Z</time>
      </trkpt>
      <trkpt lat="42.9297" lon="0.77332">
        <ele>1295.033203125</ele>
        <time>2013-03-02T14:45:42Z</time>
      </trkpt>
      <trkpt lat="42.92956" lon="0.77357">
        <ele>1292.6301269531</ele>
        <time>2013-03-02T14:47:16Z</time>
      </trkpt>
      <trkpt lat="42.92947" lon="0.77365">
        <ele>1290.2265625</ele>
        <time>2013-03-02T14:47:35Z</time>
      </trkpt>
      <trkpt lat="42.92942" lon="0.77379">
        <ele>1289.2651367188</ele>
        <time>2013-03-02T14:48:11Z</time>
      </trkpt>
      <trkpt lat="42.92926" lon="0.77382">
        <ele>1292.6301269531</ele>
        <time>2013-03-02T14:48:40Z</time>
      </trkpt>
      <trkpt lat="42.9291" lon="0.77398">
        <ele>1294.0720214844</ele>
        <time>2013-03-02T14:49:06Z</time>
      </trkpt>
      <trkpt lat="42.92894" lon="0.77406">
        <ele>1298.3977050781</ele>
        <time>2013-03-02T14:49:37Z</time>
      </trkpt>
      <trkpt lat="42.92884" lon="0.77413">
        <ele>1296.4753417969</ele>
        <time>2013-03-02T14:49:51Z</time>
      </trkpt>
      <trkpt lat="42.92868" lon="0.77421">
        <ele>1290.2265625</ele>
        <time>2013-03-02T14:50:09Z</time>
      </trkpt>
      <trkpt lat="42.92862" lon="0.77432">
        <ele>1283.9780273438</ele>
        <time>2013-03-02T14:50:28Z</time>
      </trkpt>
      <trkpt lat="42.9285" lon="0.77432">
        <ele>1275.806640625</ele>
        <time>2013-03-02T14:54:11Z</time>
      </trkpt>
      <trkpt lat="42.92838" lon="0.77424">
        <ele>1277.7294921875</ele>
        <time>2013-03-02T14:54:22Z</time>
      </trkpt>
      <trkpt lat="42.92829" lon="0.7741">
        <ele>1278.6909179688</ele>
        <time>2013-03-02T14:54:34Z</time>
      </trkpt>
      <trkpt lat="42.92811" lon="0.77399">
        <ele>1280.1328125</ele>
        <time>2013-03-02T14:54:52Z</time>
      </trkpt>
      <trkpt lat="42.92795" lon="0.77379">
        <ele>1281.5747070312</ele>
        <time>2013-03-02T14:55:10Z</time>
      </trkpt>
      <trkpt lat="42.92782" lon="0.77371">
        <ele>1281.5747070312</ele>
        <time>2013-03-02T14:55:24Z</time>
      </trkpt>
      <trkpt lat="42.92647" lon="0.77294">
        <ele>1290.70703125</ele>
        <time>2013-03-02T14:57:58Z</time>
      </trkpt>
      <trkpt lat="42.92594" lon="0.77224">
        <ele>1296.4753417969</ele>
        <time>2013-03-02T14:59:19Z</time>
      </trkpt>
      <trkpt lat="42.92552" lon="0.77156">
        <ele>1300.3205566406</ele>
        <time>2013-03-02T15:00:31Z</time>
      </trkpt>
      <trkpt lat="42.92541" lon="0.77134">
        <ele>1301.2817382812</ele>
        <time>2013-03-02T15:00:49Z</time>
      </trkpt>
      <trkpt lat="42.92521" lon="0.77116">
        <ele>1303.2043457031</ele>
        <time>2013-03-02T15:01:11Z</time>
      </trkpt>
      <trkpt lat="42.92507" lon="0.77114">
        <ele>1305.126953125</ele>
        <time>2013-03-02T15:01:26Z</time>
      </trkpt>
      <trkpt lat="42.92456" lon="0.77083">
        <ele>1308.4916992188</ele>
        <time>2013-03-02T15:02:20Z</time>
      </trkpt>
      <trkpt lat="42.92406" lon="0.77059">
        <ele>1312.3369140625</ele>
        <time>2013-03-02T15:03:12Z</time>
      </trkpt>
      <trkpt lat="42.92389" lon="0.77055">
        <ele>1313.7788085938</ele>
        <time>2013-03-02T15:03:30Z</time>
      </trkpt>
      <trkpt lat="42.92343" lon="0.77057">
        <ele>1315.7016601562</ele>
        <time>2013-03-02T15:04:16Z</time>
      </trkpt>
      <trkpt lat="42.92323" lon="0.77057">
        <ele>1316.1821289062</ele>
        <time>2013-03-02T15:04:34Z</time>
      </trkpt>
      <trkpt lat="42.92296" lon="0.77024">
        <ele>1317.1435546875</ele>
        <time>2013-03-02T15:05:03Z</time>
      </trkpt>
      <trkpt lat="42.92284" lon="0.77007">
        <ele>1317.6240234375</ele>
        <time>2013-03-02T15:05:18Z</time>
      </trkpt>
      <trkpt lat="42.92275" lon="0.76994">
        <ele>1318.5854492188</ele>
        <time>2013-03-02T15:05:30Z</time>
      </trkpt>
      <trkpt lat="42.9226" lon="0.76957">
        <ele>1320.02734375</ele>
        <time>2013-03-02T15:06:01Z</time>
      </trkpt>
      <trkpt lat="42.92252" lon="0.76924">
        <ele>1321.4692382812</ele>
        <time>2013-03-02T15:06:33Z</time>
      </trkpt>
      <trkpt lat="42.92244" lon="0.76895">
        <ele>1322.9113769531</ele>
        <time>2013-03-02T15:06:59Z</time>
      </trkpt>
      <trkpt lat="42.92211" lon="0.76771">
        <ele>1326.7568359375</ele>
        <time>2013-03-02T15:11:14Z</time>
      </trkpt>
      <trkpt lat="42.92208" lon="0.76741">
        <ele>1328.6794433594</ele>
        <time>2013-03-02T15:11:35Z</time>
      </trkpt>
      <trkpt lat="42.92196" lon="0.76649">
        <ele>1332.5246582031</ele>
        <time>2013-03-02T15:12:34Z</time>
      </trkpt>
      <trkpt lat="42.92195" lon="0.76633">
        <ele>1333.0051269531</ele>
        <time>2013-03-02T15:12:45Z</time>
      </trkpt>
      <trkpt lat="42.92198" lon="0.7661">
        <ele>1334.9279785156</ele>
        <time>2013-03-02T15:13:00Z</time>
      </trkpt>
      <trkpt lat="42.92196" lon="0.76592">
        <ele>1336.3698730469</ele>
        <time>2013-03-02T15:13:11Z</time>
      </trkpt>
      <trkpt lat="42.92166" lon="0.76493">
        <ele>1340.6958007812</ele>
        <time>2013-03-02T15:14:20Z</time>
      </trkpt>
      <trkpt lat="42.92156" lon="0.76482">
        <ele>1341.1765136719</ele>
        <time>2013-03-02T15:14:32Z</time>
      </trkpt>
      <trkpt lat="42.9208" lon="0.76279">
        <ele>1346.9443359375</ele>
        <time>2013-03-02T15:16:57Z</time>
      </trkpt>
      <trkpt lat="42.92075" lon="0.76266">
        <ele>1347.9057617188</ele>
        <time>2013-03-02T15:17:07Z</time>
      </trkpt>
      <trkpt lat="42.9206" lon="0.76255">
        <ele>1348.8669433594</ele>
        <time>2013-03-02T15:17:24Z</time>
      </trkpt>
      <trkpt lat="42.92044" lon="0.76248">
        <ele>1348.8669433594</ele>
        <time>2013-03-02T15:17:38Z</time>
      </trkpt>
      <trkpt lat="42.92029" lon="0.76239">
        <ele>1348.8669433594</ele>
        <time>2013-03-02T15:17:51Z</time>
      </trkpt>
      <trkpt lat="42.92013" lon="0.76216">
        <ele>1349.8283691406</ele>
        <time>2013-03-02T15:18:15Z</time>
      </trkpt>
      <trkpt lat="42.92003" lon="0.76196">
        <ele>1350.3090820312</ele>
        <time>2013-03-02T15:18:31Z</time>
      </trkpt>
      <trkpt lat="42.91988" lon="0.76185">
        <ele>1350.7895507812</ele>
        <time>2013-03-02T15:18:45Z</time>
      </trkpt>
      <trkpt lat="42.91976" lon="0.76176">
        <ele>1352.7121582031</ele>
        <time>2013-03-02T15:19:01Z</time>
      </trkpt>
      <trkpt lat="42.91948" lon="0.76167">
        <ele>1354.634765625</ele>
        <time>2013-03-02T15:19:30Z</time>
      </trkpt>
      <trkpt lat="42.91936" lon="0.7617">
        <ele>1354.154296875</ele>
        <time>2013-03-02T15:19:51Z</time>
      </trkpt>
      <trkpt lat="42.91936" lon="0.7617">
        <ele>1354.634765625</ele>
        <time>2013-03-02T15:19:52Z</time>
      </trkpt>
    </trkseg>
  </trk>
</gpx>